Latest Weather Observations for Braidwood

IDN60901

Issued at 7:05 pm EDT Saturday 25 October 2014 (issued every 10 minutes, with the page automatically refreshed every 10 minutes)

About weather observations | Map of Canberra area stations | Latest observations for Canberra area | Other Formats
Station Details ID: 069132 Name: BRAIDWOOD RACECOURSE AWS Lat: -35.43 Lon: 149.78 Height: 665.2 m
Data from the previous 72 hours. | See also: Recent months at Braidwood
Date/Time
EDT
Tmp

°C
App
Tmp
°C
Dew
Point
°C
Rel
Hum
%
Delta-T

°C
Wind Press
QNH
hPa
Press
MSL
hPa
Rain
since
9 am
mm
Dir
 
Spd
km/h
Gust
km/h
Spd
kts
Gust
kts
25/07:00pm 15.6 16.1 14.0 90 0.9 ESE 4 9 2 5 1016.0 1015.2 2.2
25/06:30pm 15.4 15.3 13.9 91 0.9 SE 7 9 4 5 1016.0 1015.2 2.2
25/06:00pm 16.2 14.7 14.2 88 1.2 SE 15 20 8 11 1015.9 1015.1 2.2
25/05:30pm 17.2 15.7 15.4 89 1.1 SE 17 24 9 13 1015.8 1015.0 2.2
25/05:00pm 17.3 16.8 15.8 91 0.9 E 13 19 7 10 1015.4 1014.6 2.2
25/04:30pm 17.3 16.2 14.4 83 1.7 ESE 13 17 7 9 1016.3 1015.5 0.0
25/04:00pm 19.0 16.7 14.7 76 2.6 ESE 20 24 11 13 1015.5 1014.7 0.0
25/03:30pm 20.8 18.7 16.2 75 2.8 ESE 22 28 12 15 1015.4 1014.6 0.0
25/03:00pm 22.8 21.8 17.9 74 3.1 SE 20 28 11 15 1015.4 1014.6 0.0
25/02:30pm 25.2 23.3 15.2 54 6.2 ESE 19 26 10 14 1015.4 1014.6 0.0
25/02:00pm 27.8 25.4 8.6 30 10.8 WNW 11 17 6 9 1015.9 1015.1 0.0
25/01:30pm 27.6 25.3 9.0 31 10.5 W 11 20 6 11 1016.1 1015.3 0.0
25/01:00pm 27.2 25.2 10.0 34 9.9 WSW 11 20 6 11 1016.4 1015.6 0.0
25/12:30pm 27.3 26.8 12.1 39 9.0 NNE 6 11 3 6 1016.7 1015.9 0.0
25/12:00pm 26.6 26.4 13.0 43 8.2 NNE 6 13 3 7 1017.2 1016.5 0.0
25/11:30am 25.4 26.0 11.9 43 7.9 CALM 0 6 0 3 1017.8 1017.0 0.0
25/11:00am 24.3 23.7 11.6 45 7.4 NNE 6 13 3 7 1018.0 1017.2 0.0
25/10:30am 23.1 22.1 10.2 44 7.3 NE 6 7 3 4 1018.3 1017.6 0.0
25/10:00am 22.2 22.4 11.9 52 6.0 NNE 2 6 1 3 1018.3 1017.6 0.0
25/09:30am 20.7 21.5 12.7 60 4.7 CALM 0 0 0 0 1018.3 1017.6 0.0
25/09:00am 20.5 21.4 13.9 66 3.9 NNW 2 7 1 4 1018.2 1017.5 0.0
25/08:30am 18.0 18.0 9.9 59 4.4 CALM 0 0 0 0 1018.1 1017.3 0.0
25/08:00am 16.3 17.0 12.3 77 2.3 CALM 0 0 0 0 1018.3 1017.6 0.0
25/07:30am 13.1 13.2 10.1 82 1.6 CALM 0 0 0 0 1017.9 1017.1 0.0
25/07:00am 10.8 10.7 9.4 91 0.7 CALM 0 0 0 0 1017.6 1016.8 0.0
25/06:30am 9.2 8.6 7.5 89 0.8 CALM 0 0 0 0 1017.5 1016.7 0.0
25/06:00am 9.2 8.8 8.1 93 0.5 CALM 0 0 0 0 1016.7 1015.9 0.0
25/05:30am 9.7 9.4 8.8 94 0.5 CALM 0 0 0 0 1016.7 1015.9 0.0
25/05:00am 9.2 8.8 8.3 94 0.5 CALM 0 0 0 0 1016.5 1015.7 0.0
25/04:30am 9.3 8.9 8.2 93 0.6 CALM 0 0 0 0 1016.1 1015.3 0.0
25/04:00am 9.6 9.3 8.7 94 0.5 CALM 0 0 0 0 1015.6 1014.9 0.0
25/03:30am 9.8 9.6 8.9 94 0.5 CALM 0 0 0 0 1015.2 1014.4 0.0
25/03:00am 9.7 9.4 8.5 92 0.6 CALM 0 0 0 0 1015.0 1014.2 0.0
25/02:30am 11.0 11.0 9.9 93 0.6 CALM 0 0 0 0 1014.9 1014.1 0.0
25/02:00am 11.2 11.3 10.0 92 0.6 CALM 0 0 0 0 1014.8 1014.0 0.0
25/01:30am 10.6 10.3 8.5 87 1.1 CALM 0 0 0 0 1014.9 1014.1 0.0
25/01:00am 11.5 11.3 8.9 84 1.3 CALM 0 0 0 0 1015.0 1014.2 0.0
25/12:30am 12.4 12.5 10.0 85 1.3 CALM 0 0 0 0 1015.3 1014.5 0.0
25/12:00am 14.1 14.3 10.7 80 1.8 NNW 0 0 0 0 1015.4 1014.6 0.0
 
Date/Time
EDT
Tmp

°C
App
Tmp
°C
Dew
Point
°C
Rel
Hum
%
Delta-T

°C
Wind Press
QNH
hPa
Press
MSL
hPa
Rain
since
9 am
mm
Dir
 
Spd
km/h
Gust
km/h
Spd
kts
Gust
kts
24/11:30pm 15.1 15.4 10.9 76 2.3 CALM 0 0 0 0 1015.2 1014.4 0.0
24/11:00pm 15.5 16.2 12.3 81 1.8 CALM 0 0 0 0 1015.2 1014.4 0.0
24/10:30pm 16.9 17.5 13.0 78 2.2 NNW 2 4 1 2 1015.1 1014.3 0.0
24/10:00pm 18.3 19.4 13.4 73 2.9 CALM 0 0 0 0 1015.0 1014.2 0.0
24/09:30pm 19.5 20.0 15.0 75 2.7 N 6 11 3 6 1015.0 1014.2 0.0
24/09:00pm 18.9 20.6 15.2 79 2.2 CALM 0 0 0 0 1014.8 1014.0 0.0
24/08:30pm 19.1 20.3 15.8 81 2.0 SE 4 11 2 6 1014.6 1013.8 0.0
24/08:00pm 19.9 21.9 16.0 78 2.4 CALM 0 0 0 0 1014.6 1013.8 0.0
24/07:30pm 20.6 22.5 15.8 74 3.0 CALM 0 0 0 0 1014.2 1013.3 0.0
24/07:00pm 21.5 23.6 16.2 72 3.3 CALM 0 0 0 0 1013.8 1013.0 0.0
24/06:30pm 22.6 25.0 17.1 71 3.5 CALM 0 0 0 0 1013.7 1012.9 0.0
24/06:00pm 23.8 26.5 17.8 69 3.9 CALM 0 0 0 0 1013.6 1012.8 0.0
24/05:30pm 24.6 26.6 16.1 59 5.3 CALM 0 0 0 0 1013.6 1012.8 0.0
24/05:00pm 24.9 24.2 13.1 48 7.1 NW 9 13 5 7 1013.7 1012.9 0.0
24/04:30pm 26.4 23.8 12.1 41 8.5 WNW 17 24 9 13 1013.8 1013.0 0.0
24/04:00pm 27.0 24.4 11.9 39 8.9 NW 17 26 9 14 1014.0 1013.2 0.0
24/03:30pm 26.9 24.6 10.6 36 9.4 NW 13 28 7 15 1014.4 1013.6 0.0
24/03:00pm 26.4 24.2 12.1 41 8.5 NW 15 28 8 15 1014.8 1014.0 0.0
24/02:30pm 26.9 25.6 13.6 44 8.1 NNW 13 26 7 14 1015.1 1014.3 0.0
24/02:00pm 26.6 24.7 13.0 43 8.2 NNW 15 24 8 13 1015.5 1014.7 0.0
24/01:30pm 26.1 24.4 12.5 42 8.1 NNW 13 28 7 15 1015.8 1015.0 0.0
24/01:00pm 26.3 24.9 14.4 48 7.3 NNW 15 28 8 15 1016.3 1015.5 0.0
24/12:30pm 25.8 25.5 14.3 49 7.0 N 9 22 5 12 1016.9 1016.2 0.0
24/12:00pm 24.6 24.2 14.1 52 6.4 NNE 9 19 5 10 1017.6 1016.8 0.0
24/11:30am 23.4 23.2 13.6 54 5.9 N 7 19 4 10 1018.3 1017.6 0.0
24/11:00am 22.8 22.3 13.8 57 5.4 N 9 17 5 9 1019.1 1018.3 0.0
24/10:30am 21.6 21.5 14.0 62 4.6 N 7 17 4 9 1019.4 1018.6 0.0
24/10:00am 20.5 20.5 14.2 67 3.8 N 7 15 4 8 1019.9 1019.2 0.0
24/09:30am 19.4 19.5 14.0 71 3.2 N 6 13 3 7 1020.0 1019.3 0.0
24/09:00am 17.7 17.2 12.2 70 3.1 N 6 13 3 7 1020.3 1019.6 7.2
24/08:30am 15.8 16.5 13.5 86 1.3 N 2 7 1 4 1020.3 1019.6 7.2
24/08:00am 13.2 13.9 12.3 94 0.5 CALM 0 2 0 1 1020.7 1019.9 7.2
24/07:30am 11.5 11.7 10.6 94 0.5 CALM 0 0 0 0 1020.8 1020.0 7.2
24/07:00am 10.8 10.8 9.7 93 0.6 CALM 0 0 0 0 1020.7 1019.9 7.2
24/06:30am 10.6 10.6 9.7 94 0.5 CALM 0 0 0 0 1020.4 1019.7 7.2
24/06:00am 10.2 9.9 8.6 90 0.8 CALM 0 0 0 0 1020.3 1019.6 7.2
24/05:30am 11.6 11.1 9.3 86 1.2 SSE 2 7 1 4 1020.2 1019.5 7.2
24/05:00am 12.4 11.7 10.0 85 1.3 E 4 7 2 4 1019.7 1019.0 7.2
24/04:30am 13.5 12.6 11.2 86 1.3 N 7 19 4 10 1019.3 1018.5 7.2
24/04:00am 14.4 13.8 11.6 83 1.5 NE 6 19 3 10 1019.2 1018.4 7.2
24/03:40am 13.3 12.6 11.9 91 0.8 N 7 20 4 11 1019.4 1018.6 7.0
24/03:30am 13.6 12.8 11.8 89 1.0 WSW 7 20 4 11 1021.4 1020.7 6.4
24/03:00am 13.8 12.2 11.5 86 1.3 NW 11 17 6 9 1021.5 1020.8 4.4
24/02:30am 13.8 13.3 10.8 82 1.6 WNW 4 6 2 3 1021.2 1020.5 3.8
24/02:00am 13.8 12.9 11.3 85 1.4 N 7 13 4 7 1021.0 1020.3 3.8
24/01:30am 13.6 9.5 11.3 86 1.3 W 24 32 13 17 1022.5 1021.8 3.0
24/01:00am 12.0 11.2 11.1 94 0.5 NNW 6 11 3 6 1021.2 1020.5 2.8
24/12:30am 12.4 12.1 11.3 93 0.6 W 4 9 2 5 1021.1 1020.4 2.6
24/12:00am 12.8 12.2 11.7 93 0.6 NW 6 9 3 5 1021.3 1020.6 2.6
 
Date/Time
EDT
Tmp

°C
App
Tmp
°C
Dew
Point
°C
Rel
Hum
%
Delta-T

°C
Wind Press
QNH
hPa
Press
MSL
hPa
Rain
since
9 am
mm
Dir
 
Spd
km/h
Gust
km/h
Spd
kts
Gust
kts
23/11:30pm 13.2 12.4 11.8 91 0.8 WNW 7 13 4 7 1021.7 1021.0 2.6
23/11:00pm 13.6 13.0 12.2 91 0.8 NE 7 13 4 7 1021.8 1021.1 2.6
23/10:30pm 14.2 14.3 12.8 91 0.8 NE 4 11 2 6 1023.0 1022.3 2.6
23/10:00pm 14.9 13.7 12.8 87 1.2 WSW 11 20 6 11 1024.1 1023.4 2.0
23/09:50pm 14.8 12.0 12.5 86 1.3 SW 19 24 10 13 1024.3 1023.6 2.0
23/09:30pm 14.5 14.8 12.2 86 1.3 NE 2 7 1 4 1022.3 1021.6 2.0
23/09:00pm 15.1 12.6 12.2 83 1.6 S 17 20 9 11 1022.6 1021.9 1.8
23/08:53pm 15.8 10.3 12.0 78 2.1 ESE 32 39 17 21 1021.1 1020.4 1.2
23/08:30pm 15.2 14.3 12.5 84 1.5 ESE 9 19 5 10 1021.0 1020.3 0.6
23/08:00pm 15.9 15.1 12.8 82 1.8 SSE 9 13 5 7 1021.2 1020.5 0.4
23/07:30pm 15.9 14.1 12.1 78 2.1 SSE 13 20 7 11 1020.8 1020.0 0.4
23/07:00pm 16.7 15.0 13.6 82 1.8 SE 15 22 8 12 1020.4 1019.7 0.4
23/06:30pm 17.8 14.7 13.3 75 2.6 S 22 33 12 18 1020.4 1019.7 0.4
23/06:00pm 17.6 15.3 12.9 74 2.7 E 17 22 9 12 1018.8 1018.1 0.4
23/05:30pm 18.1 17.3 11.0 63 4.0 S 6 15 3 8 1020.2 1019.5 0.0
23/05:00pm 19.9 19.7 9.2 50 5.8 CALM 0 0 0 0 1020.2 1019.5 0.0
23/04:30pm 19.9 18.5 9.5 51 5.7 NE 7 13 4 7 1019.2 1018.4 0.0
23/04:00pm 19.6 17.4 9.2 51 5.7 S 11 24 6 13 1019.4 1018.6 0.0
23/03:30pm 19.4 17.8 10.1 55 5.1 WSW 9 19 5 10 1020.2 1019.5 0.0
23/03:00pm 20.8 16.4 7.4 42 7.1 W 20 33 11 18 1019.8 1019.1 0.0
23/02:30pm 22.2 19.6 9.4 44 7.1 ESE 13 19 7 10 1019.1 1018.3 0.0
23/02:00pm 25.1 21.8 9.4 37 8.8 ESE 17 24 9 13 1018.8 1018.1 0.0
23/01:30pm 23.6 21.8 12.0 48 6.8 E 13 19 7 10 1019.4 1018.6 0.0
23/01:00pm 25.0 22.1 9.7 38 8.6 ESE 15 22 8 12 1019.6 1018.9 0.0
23/12:30pm 25.0 23.0 11.6 43 7.8 E 13 20 7 11 1019.6 1018.9 0.0
23/12:00pm 25.1 23.7 9.0 36 9.0 SSE 6 15 3 8 1020.0 1019.3 0.0
23/11:30am 25.2 26.6 14.3 50 6.7 CALM 0 0 0 0 1020.2 1019.5 0.0
23/11:00am 24.3 25.6 14.1 53 6.2 CALM 0 0 0 0 1020.2 1019.5 0.0
23/10:30am 23.6 25.4 15.4 60 5.1 CALM 0 0 0 0 1020.4 1019.7 0.0
23/10:00am 22.1 23.6 14.7 63 4.5 CALM 0 0 0 0 1020.3 1019.6 0.0
23/09:30am 20.3 21.9 14.9 71 3.3 CALM 0 0 0 0 1020.3 1019.6 0.0
23/09:00am 17.7 19.3 14.8 83 1.7 CALM 0 0 0 0 1020.2 1019.5 0.0
23/08:30am 15.9 17.5 14.9 94 0.6 CALM 0 0 0 0 1020.3 1019.6 0.0
23/08:00am 13.3 14.2 12.8 97 0.3 CALM 0 0 0 0 1020.3 1019.6 0.0
23/07:30am 12.0 12.5 11.5 97 0.3 CALM 0 0 0 0 1020.2 1019.5 0.0
23/07:00am 10.0 9.9 9.5 97 0.3 CALM 0 0 0 0 1020.1 1019.4 0.0
23/06:30am 8.9 8.5 8.3 96 0.3 CALM 0 0 0 0 1019.7 1019.0 0.0
23/06:00am 8.2 7.6 7.6 96 0.3 CALM 0 0 0 0 1019.7 1019.0 0.0
23/05:30am 7.9 7.3 7.3 96 0.3 CALM 0 0 0 0 1019.3 1018.5 0.0
23/05:00am 7.7 7.0 7.1 96 0.3 CALM 0 0 0 0 1019.3 1018.5 0.0
23/04:30am 7.9 7.3 7.3 96 0.3 CALM 0 0 0 0 1019.0 1018.2 0.0
23/04:00am 8.3 7.8 7.7 96 0.3 CALM 0 0 0 0 1018.8 1018.1 0.0
23/03:30am 7.9 7.3 7.3 96 0.3 CALM 0 0 0 0 1019.0 1018.2 0.0
23/03:00am 8.1 7.5 7.5 96 0.3 CALM 0 0 0 0 1019.3 1018.5 0.0
23/02:30am 7.5 6.8 6.8 95 0.3 CALM 0 0 0 0 1019.5 1018.8 0.0
23/02:00am 9.2 8.9 8.6 96 0.3 CALM 0 0 0 0 1019.7 1019.0 0.0
23/01:30am 8.5 8.0 7.7 95 0.4 CALM 0 0 0 0 1020.0 1019.3 0.0
23/01:00am 9.0 8.6 8.2 95 0.4 CALM 0 0 0 0 1020.2 1019.5 0.0
23/12:30am 9.3 8.9 8.4 94 0.5 CALM 0 0 0 0 1020.2 1019.5 0.0
23/12:00am 9.8 9.5 8.7 93 0.6 CALM 0 0 0 0 1020.4 1019.7 0.0
 
Date/Time
EDT
Tmp

°C
App
Tmp
°C
Dew
Point
°C
Rel
Hum
%
Delta-T

°C
Wind Press
QNH
hPa
Press
MSL
hPa
Rain
since
9 am
mm
Dir
 
Spd
km/h
Gust
km/h
Spd
kts
Gust
kts
22/11:30pm 10.7 10.6 9.3 91 0.7 CALM 0 0 0 0 1020.6 1019.8 0.0
22/11:00pm 11.0 10.9 9.6 91 0.7 CALM 0 0 0 0 1020.8 1020.0 0.0
22/10:30pm 12.3 12.6 11.0 92 0.7 CALM 0 0 0 0 1020.8 1020.0 0.0
22/10:00pm 12.2 12.4 10.6 90 0.9 CALM 0 0 0 0 1020.9 1020.2 0.0
22/09:30pm 12.3 12.5 10.5 89 1.0 CALM 0 0 0 0 1020.8 1020.0 0.0
22/09:00pm 13.6 14.0 11.3 86 1.3 CALM 0 0 0 0 1020.8 1020.0 0.0
22/08:30pm 14.5 15.0 11.7 83 1.6 CALM 0 0 0 0 1020.4 1019.7 0.0
22/08:00pm 16.2 17.0 12.6 79 2.0 CALM 0 0 0 0 1020.2 1019.5 0.0
22/07:30pm 17.2 17.9 12.1 72 2.9 CALM 0 0 0 0 1020.0 1019.3 0.0

Latest Capital City Observations: Canberra | Sydney | Melbourne | Brisbane | Adelaide | Perth | Hobart | Darwin

Other Formats:

Comma delimited format used in spreadsheet applications
http://www.bom.gov.au/fwo/IDN60903/IDN60903.94927.axf

JavaScript Object Notation format (JSON) in row-major order
http://www.bom.gov.au/fwo/IDN60903/IDN60903.94927.json